FEFT

Berbérati Airport

Berbérati, Central African Republic
METAR FEFT 190800Z 08004KT 9999 SCT010 25/22 Q1012
Observed Flight Rules
Oct-19 @ 08:00 UTC (an hour ago) Visual Flight Rules
Wind Visibility Clouds
80° at 4 knots 10,000+ meters
  • Scattered at 1,000' AGL
Temperatures Readings
Current 25°C / 77°F
Dewpoint 22°C / 72°F
Humidity 83%
Altimeter 29.88" Hg
Pressure 1012 hPa
Elevation 583
METAR FEFT 190800Z 08004KT 9999 SCT010 25/22 Q1012
Observed Flight Rules
Oct-19 @ 08:00 UTC
(an hour ago)
VFR
Wind Visibility
80° at 4 knots 10,000+ meters
Clouds
  • Scattered at 1,000' AGL
Temperature Dewpoint
25°C / 77°F 22°C / 72°F
Humidity Altimeter Pressure
83% 29.88" Hg 1012 hPa